sensor_id;sensor_type;location;lat;lon;timestamp;P1;durP1;ratioP1;P2;durP2;ratioP2
6547;SDS011;3307;52.416;16.862;2022-07-23T00:00:46;12.80;;;10.83;;
6547;SDS011;3307;52.416;16.862;2022-07-23T00:03:12;13.17;;;11.70;;
6547;SDS011;3307;52.416;16.862;2022-07-23T00:05:38;13.07;;;11.97;;
6547;SDS011;3307;52.416;16.862;2022-07-23T00:08:03;13.10;;;12.00;;
6547;SDS011;3307;52.416;16.862;2022-07-23T00:10:29;13.23;;;11.83;;
6547;SDS011;3307;52.416;16.862;2022-07-23T00:12:55;12.23;;;11.07;;
6547;SDS011;3307;52.416;16.862;2022-07-23T00:15:20;12.03;;;10.93;;
6547;SDS011;3307;52.416;16.862;2022-07-23T00:17:46;11.50;;;10.50;;
6547;SDS011;3307;52.416;16.862;2022-07-23T00:20:11;12.47;;;11.40;;
6547;SDS011;3307;52.416;16.862;2022-07-23T00:22:37;13.37;;;12.23;;
6547;SDS011;3307;52.416;16.862;2022-07-23T00:25:20;12.40;;;11.17;;
6547;SDS011;3307;52.416;16.862;2022-07-23T00:27:46;13.50;;;12.20;;
6547;SDS011;3307;52.416;16.862;2022-07-23T00:30:12;13.60;;;12.20;;
6547;SDS011;3307;52.416;16.862;2022-07-23T00:32:47;13.80;;;12.70;;
6547;SDS011;3307;52.416;16.862;2022-07-23T00:35:14;12.43;;;11.20;;
6547;SDS011;3307;52.416;16.862;2022-07-23T00:37:40;13.67;;;12.57;;
6547;SDS011;3307;52.416;16.862;2022-07-23T00:40:05;11.47;;;10.53;;
6547;SDS011;3307;52.416;16.862;2022-07-23T00:42:31;12.67;;;11.67;;
6547;SDS011;3307;52.416;16.862;2022-07-23T00:44:57;13.47;;;12.13;;
6547;SDS011;3307;52.416;16.862;2022-07-23T00:47:23;13.00;;;11.87;;
6547;SDS011;3307;52.416;16.862;2022-07-23T00:49:48;11.87;;;10.83;;
6547;SDS011;3307;52.416;16.862;2022-07-23T00:52:13;12.70;;;11.60;;
6547;SDS011;3307;52.416;16.862;2022-07-23T00:54:39;13.57;;;12.37;;
6547;SDS011;3307;52.416;16.862;2022-07-23T00:57:04;13.33;;;12.23;;
6547;SDS011;3307;52.416;16.862;2022-07-23T00:59:30;12.60;;;11.60;;
6547;SDS011;3307;52.416;16.862;2022-07-23T01:01:55;12.83;;;11.73;;
6547;SDS011;3307;52.416;16.862;2022-07-23T01:04:20;12.40;;;11.37;;
6547;SDS011;3307;52.416;16.862;2022-07-23T01:06:46;13.57;;;12.23;;
6547;SDS011;3307;52.416;16.862;2022-07-23T01:09:11;12.80;;;11.80;;
6547;SDS011;3307;52.416;16.862;2022-07-23T01:11:37;13.20;;;12.00;;
6547;SDS011;3307;52.416;16.862;2022-07-23T01:14:13;14.20;;;13.00;;
6547;SDS011;3307;52.416;16.862;2022-07-23T01:16:40;12.37;;;11.27;;
6547;SDS011;3307;52.416;16.862;2022-07-23T01:19:06;12.83;;;11.90;;
6547;SDS011;3307;52.416;16.862;2022-07-23T01:21:32;14.17;;;12.97;;
6547;SDS011;3307;52.416;16.862;2022-07-23T01:24:00;12.70;;;11.60;;
6547;SDS011;3307;52.416;16.862;2022-07-23T01:26:26;13.00;;;11.53;;
6547;SDS011;3307;52.416;16.862;2022-07-23T01:28:51;13.33;;;12.20;;
6547;SDS011;3307;52.416;16.862;2022-07-23T01:31:16;14.03;;;12.93;;
6547;SDS011;3307;52.416;16.862;2022-07-23T01:33:42;13.13;;;11.93;;
6547;SDS011;3307;52.416;16.862;2022-07-23T01:36:08;13.40;;;12.40;;
6547;SDS011;3307;52.416;16.862;2022-07-23T01:38:34;13.00;;;11.70;;
6547;SDS011;3307;52.416;16.862;2022-07-23T01:40:59;14.43;;;13.13;;
6547;SDS011;3307;52.416;16.862;2022-07-23T01:43:24;12.20;;;11.10;;
6547;SDS011;3307;52.416;16.862;2022-07-23T01:45:50;13.30;;;12.10;;
6547;SDS011;3307;52.416;16.862;2022-07-23T01:48:15;12.03;;;11.03;;
6547;SDS011;3307;52.416;16.862;2022-07-23T01:50:41;13.07;;;11.97;;
6547;SDS011;3307;52.416;16.862;2022-07-23T01:53:07;12.00;;;10.90;;
6547;SDS011;3307;52.416;16.862;2022-07-23T01:55:32;13.03;;;11.60;;
6547;SDS011;3307;52.416;16.862;2022-07-23T01:57:57;13.67;;;12.43;;
6547;SDS011;3307;52.416;16.862;2022-07-23T02:00:23;11.80;;;10.90;;
6547;SDS011;3307;52.416;16.862;2022-07-23T02:02:48;13.43;;;12.27;;
6547;SDS011;3307;52.416;16.862;2022-07-23T02:05:13;12.97;;;11.97;;
6547;SDS011;3307;52.416;16.862;2022-07-23T02:07:39;12.83;;;11.70;;
6547;SDS011;3307;52.416;16.862;2022-07-23T02:10:04;13.23;;;12.23;;
6547;SDS011;3307;52.416;16.862;2022-07-23T02:12:30;14.10;;;12.90;;
6547;SDS011;3307;52.416;16.862;2022-07-23T02:14:56;14.10;;;12.80;;
6547;SDS011;3307;52.416;16.862;2022-07-23T02:17:21;12.13;;;11.23;;
6547;SDS011;3307;52.416;16.862;2022-07-23T02:19:46;14.13;;;12.87;;
6547;SDS011;3307;52.416;16.862;2022-07-23T02:22:12;15.17;;;13.50;;
6547;SDS011;3307;52.416;16.862;2022-07-23T02:24:37;13.77;;;12.47;;
6547;SDS011;3307;52.416;16.862;2022-07-23T02:27:03;12.80;;;11.80;;
6547;SDS011;3307;52.416;16.862;2022-07-23T02:29:28;11.80;;;10.90;;
6547;SDS011;3307;52.416;16.862;2022-07-23T02:31:53;14.57;;;13.20;;
6547;SDS011;3307;52.416;16.862;2022-07-23T02:34:19;13.50;;;12.40;;
6547;SDS011;3307;52.416;16.862;2022-07-23T02:36:44;13.37;;;12.17;;
6547;SDS011;3307;52.416;16.862;2022-07-23T02:39:10;13.50;;;12.10;;
6547;SDS011;3307;52.416;16.862;2022-07-23T02:41:35;13.63;;;12.53;;
6547;SDS011;3307;52.416;16.862;2022-07-23T02:44:01;12.97;;;11.87;;
6547;SDS011;3307;52.416;16.862;2022-07-23T02:46:26;14.37;;;13.17;;
6547;SDS011;3307;52.416;16.862;2022-07-23T02:48:51;13.00;;;12.00;;
6547;SDS011;3307;52.416;16.862;2022-07-23T02:51:17;13.37;;;12.07;;
6547;SDS011;3307;52.416;16.862;2022-07-23T02:53:42;13.53;;;12.33;;
6547;SDS011;3307;52.416;16.862;2022-07-23T02:56:08;13.20;;;12.10;;
6547;SDS011;3307;52.416;16.862;2022-07-23T02:58:33;14.20;;;12.90;;
6547;SDS011;3307;52.416;16.862;2022-07-23T03:00:59;13.83;;;12.63;;
6547;SDS011;3307;52.416;16.862;2022-07-23T03:03:24;13.20;;;11.97;;
6547;SDS011;3307;52.416;16.862;2022-07-23T03:05:49;13.67;;;12.33;;
6547;SDS011;3307;52.416;16.862;2022-07-23T03:08:15;14.43;;;13.07;;
6547;SDS011;3307;52.416;16.862;2022-07-23T03:10:40;14.00;;;12.63;;
6547;SDS011;3307;52.416;16.862;2022-07-23T03:13:06;13.90;;;12.73;;
6547;SDS011;3307;52.416;16.862;2022-07-23T03:15:31;14.43;;;13.13;;
6547;SDS011;3307;52.416;16.862;2022-07-23T03:17:56;13.60;;;12.23;;
6547;SDS011;3307;52.416;16.862;2022-07-23T03:20:22;15.53;;;14.13;;
6547;SDS011;3307;52.416;16.862;2022-07-23T03:22:47;16.67;;;14.97;;
6547;SDS011;3307;52.416;16.862;2022-07-23T03:25:13;13.87;;;12.57;;
6547;SDS011;3307;52.416;16.862;2022-07-23T03:27:38;14.07;;;12.87;;
6547;SDS011;3307;52.416;16.862;2022-07-23T03:30:03;14.30;;;13.10;;
6547;SDS011;3307;52.416;16.862;2022-07-23T03:32:29;14.80;;;13.50;;
6547;SDS011;3307;52.416;16.862;2022-07-23T03:34:56;14.07;;;12.97;;
6547;SDS011;3307;52.416;16.862;2022-07-23T03:37:22;13.30;;;12.20;;
6547;SDS011;3307;52.416;16.862;2022-07-23T03:39:47;13.37;;;12.17;;
6547;SDS011;3307;52.416;16.862;2022-07-23T03:42:12;14.27;;;12.90;;
6547;SDS011;3307;52.416;16.862;2022-07-23T03:44:38;13.47;;;12.20;;
6547;SDS011;3307;52.416;16.862;2022-07-23T03:47:04;14.17;;;12.93;;
6547;SDS011;3307;52.416;16.862;2022-07-23T03:49:29;16.37;;;14.87;;
6547;SDS011;3307;52.416;16.862;2022-07-23T03:51:55;13.80;;;12.50;;
6547;SDS011;3307;52.416;16.862;2022-07-23T03:54:20;14.50;;;13.13;;
6547;SDS011;3307;52.416;16.862;2022-07-23T03:56:46;18.70;;;14.13;;
6547;SDS011;3307;52.416;16.862;2022-07-23T03:59:11;14.83;;;13.63;;
6547;SDS011;3307;52.416;16.862;2022-07-23T04:01:37;14.43;;;13.10;;
6547;SDS011;3307;52.416;16.862;2022-07-23T04:04:02;16.40;;;14.70;;
6547;SDS011;3307;52.416;16.862;2022-07-23T04:06:28;15.47;;;14.07;;
6547;SDS011;3307;52.416;16.862;2022-07-23T04:08:54;17.80;;;16.23;;
6547;SDS011;3307;52.416;16.862;2022-07-23T04:11:19;16.07;;;14.77;;
6547;SDS011;3307;52.416;16.862;2022-07-23T04:13:45;16.47;;;14.97;;
6547;SDS011;3307;52.416;16.862;2022-07-23T04:16:10;14.60;;;13.30;;
6547;SDS011;3307;52.416;16.862;2022-07-23T04:18:36;15.20;;;13.80;;
6547;SDS011;3307;52.416;16.862;2022-07-23T04:21:01;15.63;;;14.23;;
6547;SDS011;3307;52.416;16.862;2022-07-23T04:23:26;15.97;;;14.43;;
6547;SDS011;3307;52.416;16.862;2022-07-23T04:25:52;16.30;;;14.73;;
6547;SDS011;3307;52.416;16.862;2022-07-23T04:28:17;16.43;;;14.93;;
6547;SDS011;3307;52.416;16.862;2022-07-23T04:30:43;17.60;;;15.90;;
6547;SDS011;3307;52.416;16.862;2022-07-23T04:33:08;16.63;;;15.10;;
6547;SDS011;3307;52.416;16.862;2022-07-23T04:35:34;17.63;;;16.03;;
6547;SDS011;3307;52.416;16.862;2022-07-23T04:37:59;16.73;;;15.33;;
6547;SDS011;3307;52.416;16.862;2022-07-23T04:40:25;16.20;;;14.90;;
6547;SDS011;3307;52.416;16.862;2022-07-23T04:42:51;16.53;;;15.03;;
6547;SDS011;3307;52.416;16.862;2022-07-23T04:45:16;16.30;;;14.73;;
6547;SDS011;3307;52.416;16.862;2022-07-23T04:47:42;15.90;;;14.40;;
6547;SDS011;3307;52.416;16.862;2022-07-23T04:50:07;16.43;;;14.97;;
6547;SDS011;3307;52.416;16.862;2022-07-23T04:52:32;16.23;;;14.83;;
6547;SDS011;3307;52.416;16.862;2022-07-23T04:54:58;16.17;;;14.77;;
6547;SDS011;3307;52.416;16.862;2022-07-23T04:57:23;15.93;;;14.40;;
6547;SDS011;3307;52.416;16.862;2022-07-23T04:59:49;15.70;;;14.40;;
6547;SDS011;3307;52.416;16.862;2022-07-23T05:02:14;15.10;;;13.90;;
6547;SDS011;3307;52.416;16.862;2022-07-23T05:04:39;16.73;;;15.13;;
6547;SDS011;3307;52.416;16.862;2022-07-23T05:07:05;15.20;;;14.00;;
6547;SDS011;3307;52.416;16.862;2022-07-23T05:09:30;17.10;;;15.50;;
6547;SDS011;3307;52.416;16.862;2022-07-23T05:11:56;17.50;;;16.00;;
6547;SDS011;3307;52.416;16.862;2022-07-23T05:14:22;17.80;;;16.00;;
6547;SDS011;3307;52.416;16.862;2022-07-23T05:16:47;18.20;;;16.70;;
6547;SDS011;3307;52.416;16.862;2022-07-23T05:19:13;17.30;;;15.60;;
6547;SDS011;3307;52.416;16.862;2022-07-23T05:21:38;17.43;;;15.57;;
6547;SDS011;3307;52.416;16.862;2022-07-23T05:24:04;18.50;;;16.20;;
6547;SDS011;3307;52.416;16.862;2022-07-23T05:26:30;15.83;;;14.30;;
6547;SDS011;3307;52.416;16.862;2022-07-23T05:28:55;17.37;;;15.77;;
6547;SDS011;3307;52.416;16.862;2022-07-23T05:31:21;17.00;;;15.40;;
6547;SDS011;3307;52.416;16.862;2022-07-23T05:33:46;16.50;;;14.90;;
6547;SDS011;3307;52.416;16.862;2022-07-23T05:36:11;16.03;;;14.37;;
6547;SDS011;3307;52.416;16.862;2022-07-23T05:38:37;15.23;;;13.40;;
6547;SDS011;3307;52.416;16.862;2022-07-23T05:41:02;15.57;;;13.90;;
6547;SDS011;3307;52.416;16.862;2022-07-23T05:43:28;16.80;;;15.10;;
6547;SDS011;3307;52.416;16.862;2022-07-23T05:45:53;17.17;;;15.10;;
6547;SDS011;3307;52.416;16.862;2022-07-23T05:48:19;18.27;;;16.37;;
6547;SDS011;3307;52.416;16.862;2022-07-23T05:50:45;16.57;;;13.60;;
6547;SDS011;3307;52.416;16.862;2022-07-23T05:53:10;16.87;;;15.13;;
6547;SDS011;3307;52.416;16.862;2022-07-23T05:55:35;17.00;;;15.00;;
6547;SDS011;3307;52.416;16.862;2022-07-23T05:58:01;17.13;;;15.33;;
6547;SDS011;3307;52.416;16.862;2022-07-23T06:00:26;16.50;;;14.87;;
6547;SDS011;3307;52.416;16.862;2022-07-23T06:02:52;17.33;;;15.63;;
6547;SDS011;3307;52.416;16.862;2022-07-23T06:05:18;19.47;;;14.70;;
6547;SDS011;3307;52.416;16.862;2022-07-23T06:07:43;15.60;;;14.27;;
6547;SDS011;3307;52.416;16.862;2022-07-23T06:10:09;14.37;;;13.03;;
6547;SDS011;3307;52.416;16.862;2022-07-23T06:12:34;15.70;;;14.03;;
6547;SDS011;3307;52.416;16.862;2022-07-23T06:15:00;14.50;;;13.20;;
6547;SDS011;3307;52.416;16.862;2022-07-23T06:17:26;14.30;;;12.93;;
6547;SDS011;3307;52.416;16.862;2022-07-23T06:19:51;15.23;;;14.00;;
6547;SDS011;3307;52.416;16.862;2022-07-23T06:22:17;16.33;;;14.27;;
6547;SDS011;3307;52.416;16.862;2022-07-23T06:24:42;16.23;;;13.50;;
6547;SDS011;3307;52.416;16.862;2022-07-23T06:27:08;13.80;;;12.57;;
6547;SDS011;3307;52.416;16.862;2022-07-23T06:29:33;14.83;;;13.57;;
6547;SDS011;3307;52.416;16.862;2022-07-23T06:31:58;14.07;;;12.60;;
6547;SDS011;3307;52.416;16.862;2022-07-23T06:34:24;14.53;;;13.13;;
6547;SDS011;3307;52.416;16.862;2022-07-23T06:36:49;13.00;;;11.80;;
6547;SDS011;3307;52.416;16.862;2022-07-23T06:39:15;13.67;;;12.30;;
6547;SDS011;3307;52.416;16.862;2022-07-23T06:41:40;14.17;;;12.83;;
6547;SDS011;3307;52.416;16.862;2022-07-23T06:44:06;14.87;;;13.33;;
6547;SDS011;3307;52.416;16.862;2022-07-23T06:46:31;14.73;;;13.43;;
6547;SDS011;3307;52.416;16.862;2022-07-23T06:48:57;12.63;;;11.53;;
6547;SDS011;3307;52.416;16.862;2022-07-23T06:51:22;12.27;;;11.27;;
6547;SDS011;3307;52.416;16.862;2022-07-23T06:53:48;12.97;;;11.27;;
6547;SDS011;3307;52.416;16.862;2022-07-23T06:56:13;12.10;;;11.20;;
6547;SDS011;3307;52.416;16.862;2022-07-23T06:58:38;11.07;;;10.17;;
6547;SDS011;3307;52.416;16.862;2022-07-23T07:01:04;10.90;;;9.93;;
6547;SDS011;3307;52.416;16.862;2022-07-23T07:03:29;10.50;;;9.70;;
6547;SDS011;3307;52.416;16.862;2022-07-23T07:05:55;12.30;;;11.40;;
6547;SDS011;3307;52.416;16.862;2022-07-23T07:08:22;11.80;;;10.80;;
6547;SDS011;3307;52.416;16.862;2022-07-23T07:10:48;12.30;;;11.27;;
6547;SDS011;3307;52.416;16.862;2022-07-23T07:13:13;10.83;;;9.80;;
6547;SDS011;3307;52.416;16.862;2022-07-23T07:15:39;10.90;;;8.67;;
6547;SDS011;3307;52.416;16.862;2022-07-23T07:18:04;10.70;;;9.30;;
6547;SDS011;3307;52.416;16.862;2022-07-23T07:20:29;11.87;;;10.70;;
6547;SDS011;3307;52.416;16.862;2022-07-23T07:22:55;9.07;;;8.27;;
6547;SDS011;3307;52.416;16.862;2022-07-23T07:25:20;8.87;;;8.20;;
6547;SDS011;3307;52.416;16.862;2022-07-23T07:27:46;8.80;;;8.00;;
6547;SDS011;3307;52.416;16.862;2022-07-23T07:30:11;10.60;;;9.70;;
6547;SDS011;3307;52.416;16.862;2022-07-23T07:32:37;9.13;;;8.33;;
6547;SDS011;3307;52.416;16.862;2022-07-23T07:35:03;10.53;;;9.63;;
6547;SDS011;3307;52.416;16.862;2022-07-23T07:37:29;9.60;;;8.70;;
6547;SDS011;3307;52.416;16.862;2022-07-23T07:39:55;9.80;;;9.00;;
6547;SDS011;3307;52.416;16.862;2022-07-23T07:42:20;9.10;;;8.50;;
6547;SDS011;3307;52.416;16.862;2022-07-23T07:44:45;9.07;;;8.33;;
6547;SDS011;3307;52.416;16.862;2022-07-23T07:47:11;11.20;;;10.30;;
6547;SDS011;3307;52.416;16.862;2022-07-23T07:49:36;9.33;;;8.60;;
6547;SDS011;3307;52.416;16.862;2022-07-23T07:52:02;13.70;;;9.27;;
6547;SDS011;3307;52.416;16.862;2022-07-23T07:54:28;8.20;;;7.60;;
6547;SDS011;3307;52.416;16.862;2022-07-23T07:56:53;9.73;;;8.70;;
6547;SDS011;3307;52.416;16.862;2022-07-23T07:59:18;7.50;;;6.90;;
6547;SDS011;3307;52.416;16.862;2022-07-23T08:01:44;8.07;;;7.47;;
6547;SDS011;3307;52.416;16.862;2022-07-23T08:04:09;8.17;;;7.57;;
6547;SDS011;3307;52.416;16.862;2022-07-23T08:06:34;8.10;;;7.47;;
6547;SDS011;3307;52.416;16.862;2022-07-23T08:09:00;8.27;;;7.67;;
6547;SDS011;3307;52.416;16.862;2022-07-23T08:11:25;11.03;;;9.27;;
6547;SDS011;3307;52.416;16.862;2022-07-23T08:13:50;8.90;;;8.30;;
6547;SDS011;3307;52.416;16.862;2022-07-23T08:16:16;10.33;;;9.33;;
6547;SDS011;3307;52.416;16.862;2022-07-23T08:18:41;10.30;;;9.50;;
6547;SDS011;3307;52.416;16.862;2022-07-23T08:21:07;10.23;;;9.20;;
6547;SDS011;3307;52.416;16.862;2022-07-23T08:23:32;10.53;;;9.60;;
6547;SDS011;3307;52.416;16.862;2022-07-23T08:25:58;11.40;;;10.40;;
6547;SDS011;3307;52.416;16.862;2022-07-23T08:28:24;12.73;;;9.90;;
6547;SDS011;3307;52.416;16.862;2022-07-23T08:30:50;12.13;;;11.10;;
6547;SDS011;3307;52.416;16.862;2022-07-23T08:33:16;11.67;;;10.77;;
6547;SDS011;3307;52.416;16.862;2022-07-23T08:35:46;12.97;;;11.80;;
6547;SDS011;3307;52.416;16.862;2022-07-23T08:38:13;26.63;;;14.50;;
6547;SDS011;3307;52.416;16.862;2022-07-23T08:40:41;13.73;;;12.70;;
6547;SDS011;3307;52.416;16.862;2022-07-23T08:43:11;14.53;;;13.13;;
6547;SDS011;3307;52.416;16.862;2022-07-23T08:45:45;14.30;;;13.10;;
6547;SDS011;3307;52.416;16.862;2022-07-23T08:48:12;14.20;;;13.00;;
6547;SDS011;3307;52.416;16.862;2022-07-23T08:50:46;12.47;;;11.43;;
6547;SDS011;3307;52.416;16.862;2022-07-23T08:53:13;11.70;;;10.70;;
6547;SDS011;3307;52.416;16.862;2022-07-23T08:55:39;12.30;;;11.40;;
6547;SDS011;3307;52.416;16.862;2022-07-23T08:58:05;11.60;;;10.70;;
6547;SDS011;3307;52.416;16.862;2022-07-23T09:00:31;11.10;;;10.30;;
6547;SDS011;3307;52.416;16.862;2022-07-23T09:02:56;12.03;;;11.00;;
6547;SDS011;3307;52.416;16.862;2022-07-23T09:05:22;12.30;;;11.17;;
6547;SDS011;3307;52.416;16.862;2022-07-23T09:08:06;12.00;;;11.03;;
6547;SDS011;3307;52.416;16.862;2022-07-23T09:10:46;10.70;;;9.73;;
6547;SDS011;3307;52.416;16.862;2022-07-23T09:16:15;10.60;;;9.70;;
6547;SDS011;3307;52.416;16.862;2022-07-23T09:26:30;10.77;;;9.87;;
6547;SDS011;3307;52.416;16.862;2022-07-23T09:34:34;12.60;;;11.50;;
6547;SDS011;3307;52.416;16.862;2022-07-23T09:39:35;13.73;;;12.30;;
6547;SDS011;3307;52.416;16.862;2022-07-23T09:42:18;14.57;;;13.37;;
6547;SDS011;3307;52.416;16.862;2022-07-23T09:44:48;12.77;;;11.77;;
6547;SDS011;3307;52.416;16.862;2022-07-23T09:47:15;11.93;;;10.90;;
6547;SDS011;3307;52.416;16.862;2022-07-23T09:49:45;11.50;;;10.60;;
6547;SDS011;3307;52.416;16.862;2022-07-23T09:52:26;11.97;;;11.07;;
6547;SDS011;3307;52.416;16.862;2022-07-23T09:55:02;11.87;;;10.77;;
6547;SDS011;3307;52.416;16.862;2022-07-23T09:57:29;12.50;;;11.40;;
6547;SDS011;3307;52.416;16.862;2022-07-23T09:59:58;13.90;;;12.80;;
6547;SDS011;3307;52.416;16.862;2022-07-23T10:02:25;12.77;;;11.67;;
6547;SDS011;3307;52.416;16.862;2022-07-23T10:04:52;12.67;;;11.67;;
6547;SDS011;3307;52.416;16.862;2022-07-23T10:07:18;12.03;;;11.03;;
6547;SDS011;3307;52.416;16.862;2022-07-23T10:09:47;11.90;;;10.90;;
6547;SDS011;3307;52.416;16.862;2022-07-23T10:12:13;13.13;;;11.93;;
6547;SDS011;3307;52.416;16.862;2022-07-23T10:14:42;11.90;;;10.90;;
6547;SDS011;3307;52.416;16.862;2022-07-23T10:17:08;12.10;;;11.10;;
6547;SDS011;3307;52.416;16.862;2022-07-23T10:19:34;11.67;;;10.67;;
6547;SDS011;3307;52.416;16.862;2022-07-23T10:22:00;13.03;;;11.97;;
6547;SDS011;3307;52.416;16.862;2022-07-23T10:27:19;11.83;;;10.83;;
6547;SDS011;3307;52.416;16.862;2022-07-23T10:30:02;11.97;;;10.70;;
6547;SDS011;3307;52.416;16.862;2022-07-23T10:35:19;12.20;;;11.20;;
6547;SDS011;3307;52.416;16.862;2022-07-23T10:37:55;12.00;;;10.97;;
6547;SDS011;3307;52.416;16.862;2022-07-23T10:40:22;11.20;;;10.30;;
6547;SDS011;3307;52.416;16.862;2022-07-23T10:42:49;10.53;;;9.80;;
6547;SDS011;3307;52.416;16.862;2022-07-23T10:45:23;9.80;;;9.00;;
6547;SDS011;3307;52.416;16.862;2022-07-23T10:47:52;10.53;;;9.73;;
6547;SDS011;3307;52.416;16.862;2022-07-23T10:58:03;9.27;;;8.47;;
6547;SDS011;3307;52.416;16.862;2022-07-23T11:00:30;9.60;;;8.80;;
6547;SDS011;3307;52.416;16.862;2022-07-23T11:03:00;8.67;;;7.97;;
6547;SDS011;3307;52.416;16.862;2022-07-23T11:05:39;9.20;;;8.23;;
6547;SDS011;3307;52.416;16.862;2022-07-23T11:08:10;9.40;;;8.70;;
6547;SDS011;3307;52.416;16.862;2022-07-23T11:10:43;9.60;;;8.70;;
6547;SDS011;3307;52.416;16.862;2022-07-23T11:26:46;9.30;;;8.30;;
6547;SDS011;3307;52.416;16.862;2022-07-23T11:32:06;8.80;;;8.20;;
6547;SDS011;3307;52.416;16.862;2022-07-23T11:34:34;9.30;;;8.60;;
6547;SDS011;3307;52.416;16.862;2022-07-23T11:37:04;9.07;;;8.27;;
6547;SDS011;3307;52.416;16.862;2022-07-23T11:39:30;10.27;;;9.30;;
6547;SDS011;3307;52.416;16.862;2022-07-23T11:41:57;9.93;;;9.13;;
6547;SDS011;3307;52.416;16.862;2022-07-23T11:44:24;10.13;;;9.43;;
6547;SDS011;3307;52.416;16.862;2022-07-23T11:47:03;9.87;;;9.00;;
6547;SDS011;3307;52.416;16.862;2022-07-23T11:49:30;11.03;;;10.23;;
6547;SDS011;3307;52.416;16.862;2022-07-23T11:52:05;9.63;;;8.93;;
6547;SDS011;3307;52.416;16.862;2022-07-23T11:54:35;11.00;;;10.20;;
6547;SDS011;3307;52.416;16.862;2022-07-23T11:57:02;10.03;;;9.20;;
6547;SDS011;3307;52.416;16.862;2022-07-23T11:59:32;9.47;;;8.77;;
6547;SDS011;3307;52.416;16.862;2022-07-23T12:01:58;10.83;;;9.77;;
6547;SDS011;3307;52.416;16.862;2022-07-23T12:04:36;12.10;;;10.83;;
6547;SDS011;3307;52.416;16.862;2022-07-23T12:10:24;10.73;;;9.83;;
6547;SDS011;3307;52.416;16.862;2022-07-23T12:12:51;9.00;;;8.40;;
6547;SDS011;3307;52.416;16.862;2022-07-23T12:15:19;10.40;;;9.63;;
6547;SDS011;3307;52.416;16.862;2022-07-23T12:17:47;10.73;;;9.83;;
6547;SDS011;3307;52.416;16.862;2022-07-23T12:20:14;9.73;;;8.90;;
6547;SDS011;3307;52.416;16.862;2022-07-23T12:22:45;9.93;;;9.13;;
6547;SDS011;3307;52.416;16.862;2022-07-23T12:27:44;7.80;;;7.23;;
6547;SDS011;3307;52.416;16.862;2022-07-23T12:30:20;8.77;;;8.07;;
6547;SDS011;3307;52.416;16.862;2022-07-23T12:32:47;8.10;;;7.50;;
6547;SDS011;3307;52.416;16.862;2022-07-23T12:35:14;7.30;;;6.70;;
6547;SDS011;3307;52.416;16.862;2022-07-23T12:37:41;7.20;;;6.70;;
6547;SDS011;3307;52.416;16.862;2022-07-23T12:45:28;7.13;;;6.53;;
6547;SDS011;3307;52.416;16.862;2022-07-23T12:48:07;7.10;;;6.60;;
6547;SDS011;3307;52.416;16.862;2022-07-23T12:50:50;7.30;;;6.80;;
6547;SDS011;3307;52.416;16.862;2022-07-23T12:53:20;6.57;;;6.17;;
6547;SDS011;3307;52.416;16.862;2022-07-23T12:55:48;7.40;;;6.90;;
6547;SDS011;3307;52.416;16.862;2022-07-23T12:58:15;7.60;;;6.93;;
6547;SDS011;3307;52.416;16.862;2022-07-23T13:00:49;7.30;;;6.80;;
6547;SDS011;3307;52.416;16.862;2022-07-23T13:05:47;8.90;;;8.20;;
6547;SDS011;3307;52.416;16.862;2022-07-23T13:08:13;8.47;;;7.67;;
6547;SDS011;3307;52.416;16.862;2022-07-23T13:10:38;8.83;;;8.13;;
6547;SDS011;3307;52.416;16.862;2022-07-23T13:13:07;7.03;;;6.53;;
6547;SDS011;3307;52.416;16.862;2022-07-23T13:15:36;7.63;;;7.13;;
6547;SDS011;3307;52.416;16.862;2022-07-23T13:18:01;8.27;;;7.50;;
6547;SDS011;3307;52.416;16.862;2022-07-23T13:20:27;8.53;;;7.90;;
6547;SDS011;3307;52.416;16.862;2022-07-23T13:22:52;7.10;;;6.60;;
6547;SDS011;3307;52.416;16.862;2022-07-23T13:25:18;8.77;;;8.07;;
6547;SDS011;3307;52.416;16.862;2022-07-23T13:27:43;7.73;;;7.13;;
6547;SDS011;3307;52.416;16.862;2022-07-23T13:30:09;7.43;;;6.83;;
6547;SDS011;3307;52.416;16.862;2022-07-23T13:32:35;8.53;;;7.83;;
6547;SDS011;3307;52.416;16.862;2022-07-23T13:35:01;7.80;;;7.27;;
6547;SDS011;3307;52.416;16.862;2022-07-23T13:37:27;8.87;;;8.07;;
6547;SDS011;3307;52.416;16.862;2022-07-23T13:39:52;8.90;;;8.00;;
6547;SDS011;3307;52.416;16.862;2022-07-23T13:42:18;9.20;;;8.10;;
6547;SDS011;3307;52.416;16.862;2022-07-23T13:44:43;7.30;;;6.70;;
6547;SDS011;3307;52.416;16.862;2022-07-23T13:47:08;7.77;;;7.17;;
6547;SDS011;3307;52.416;16.862;2022-07-23T13:49:34;8.20;;;7.60;;
6547;SDS011;3307;52.416;16.862;2022-07-23T13:51:59;8.73;;;8.10;;
6547;SDS011;3307;52.416;16.862;2022-07-23T13:54:24;7.30;;;6.80;;
6547;SDS011;3307;52.416;16.862;2022-07-23T13:56:50;9.13;;;8.43;;
6547;SDS011;3307;52.416;16.862;2022-07-23T13:59:16;8.43;;;7.83;;
6547;SDS011;3307;52.416;16.862;2022-07-23T14:01:42;8.67;;;7.93;;
6547;SDS011;3307;52.416;16.862;2022-07-23T14:04:09;9.80;;;8.80;;
6547;SDS011;3307;52.416;16.862;2022-07-23T14:06:34;10.13;;;9.20;;
6547;SDS011;3307;52.416;16.862;2022-07-23T14:08:59;8.87;;;8.27;;
6547;SDS011;3307;52.416;16.862;2022-07-23T14:11:25;10.27;;;9.47;;
6547;SDS011;3307;52.416;16.862;2022-07-23T14:13:50;10.40;;;9.40;;
6547;SDS011;3307;52.416;16.862;2022-07-23T14:16:16;9.17;;;8.37;;
6547;SDS011;3307;52.416;16.862;2022-07-23T14:18:41;8.37;;;7.77;;
6547;SDS011;3307;52.416;16.862;2022-07-23T14:21:07;8.67;;;7.97;;
6547;SDS011;3307;52.416;16.862;2022-07-23T14:23:32;10.03;;;9.23;;
6547;SDS011;3307;52.416;16.862;2022-07-23T14:25:58;10.30;;;9.40;;
6547;SDS011;3307;52.416;16.862;2022-07-23T14:28:24;12.40;;;11.07;;
6547;SDS011;3307;52.416;16.862;2022-07-23T14:30:49;11.70;;;10.70;;
6547;SDS011;3307;52.416;16.862;2022-07-23T14:33:15;13.63;;;12.37;;
6547;SDS011;3307;52.416;16.862;2022-07-23T14:35:41;13.17;;;12.07;;
6547;SDS011;3307;52.416;16.862;2022-07-23T14:38:06;14.50;;;13.33;;
6547;SDS011;3307;52.416;16.862;2022-07-23T14:40:32;13.50;;;12.43;;
6547;SDS011;3307;52.416;16.862;2022-07-23T14:42:57;15.00;;;13.90;;
6547;SDS011;3307;52.416;16.862;2022-07-23T14:45:23;15.00;;;13.80;;
6547;SDS011;3307;52.416;16.862;2022-07-23T14:47:48;12.80;;;11.83;;
6547;SDS011;3307;52.416;16.862;2022-07-23T14:50:14;14.37;;;13.10;;
6547;SDS011;3307;52.416;16.862;2022-07-23T14:52:39;13.80;;;12.80;;
6547;SDS011;3307;52.416;16.862;2022-07-23T14:55:05;12.10;;;11.20;;
6547;SDS011;3307;52.416;16.862;2022-07-23T14:57:30;13.53;;;12.43;;
6547;SDS011;3307;52.416;16.862;2022-07-23T14:59:56;11.83;;;10.93;;
6547;SDS011;3307;52.416;16.862;2022-07-23T15:02:22;12.53;;;11.53;;
6547;SDS011;3307;52.416;16.862;2022-07-23T15:04:47;12.17;;;11.07;;
6547;SDS011;3307;52.416;16.862;2022-07-23T15:07:14;11.60;;;10.70;;
6547;SDS011;3307;52.416;16.862;2022-07-23T15:09:39;10.60;;;9.90;;
6547;SDS011;3307;52.416;16.862;2022-07-23T15:12:04;10.10;;;9.40;;
6547;SDS011;3307;52.416;16.862;2022-07-23T15:14:30;10.43;;;9.63;;
6547;SDS011;3307;52.416;16.862;2022-07-23T15:16:55;10.27;;;9.53;;
6547;SDS011;3307;52.416;16.862;2022-07-23T15:19:21;9.70;;;9.00;;
6547;SDS011;3307;52.416;16.862;2022-07-23T15:21:46;10.17;;;9.37;;
6547;SDS011;3307;52.416;16.862;2022-07-23T15:24:12;10.10;;;9.30;;
6547;SDS011;3307;52.416;16.862;2022-07-23T15:26:37;10.53;;;9.73;;
6547;SDS011;3307;52.416;16.862;2022-07-23T15:29:03;10.20;;;9.40;;
6547;SDS011;3307;52.416;16.862;2022-07-23T15:31:30;9.67;;;8.87;;
6547;SDS011;3307;52.416;16.862;2022-07-23T15:33:56;11.20;;;10.20;;
6547;SDS011;3307;52.416;16.862;2022-07-23T15:36:21;9.83;;;9.03;;
6547;SDS011;3307;52.416;16.862;2022-07-23T15:38:47;9.57;;;8.83;;